Tropical Cyclones
[Index]
Main Index Home Page Stock Weather Photos Extreme Storms Discussion Storm News and Storm Chasing Reports Tropical Cyclones / Hurricanes / Typhoons Weather Data and Links Wild Fires / Bushfires Weather Observation Techniques Weather Picture Catalogue Tornado Pictures and Reports Stock Video Footage and DVDs for sale
Season 1972-1973 Tropical Cyclone LYDIE Track Map
Season 1972-1973 Summaries: [BoM-AU] [JTWC-AU] [JTWC-SIO] [JTWC-SPAC] [JTWC-SH]
<<- Previous TC | JTWC 1972-1973 Season | Next TC ->>

click for intensity scale information  Lat/long Grid: Show Hide

 Date Labels: Show Hide

Joint Typhoon Warning Centre Cyclone Data

Name: LYDIE
Number: 831 / 7329

04 Mar 1973 06:00 UTC to 15 Mar 1973 06:00 UTC

    date/time    lat    long     hPa   cat  kts
1973-03-04 06   11.6    71.1                              
1973-03-04 12   11.9    70.9                              
1973-03-04 18   12.2    70.7                              
1973-03-05 00   12.5    70.6                              
1973-03-05 06   12.8    70.4                              
1973-03-05 12   13.0    69.3                              
1973-03-05 18   13.1    67.5                              
1973-03-06 00   13.3    65.7                              
1973-03-06 06   13.6    64.0                              
1973-03-06 12   13.8    62.4                              
1973-03-06 18   14.0    60.8                              
1973-03-07 00   14.4    59.4                              
1973-03-07 06   14.8    58.2                              
1973-03-07 12   15.0    57.1                              
1973-03-07 18   15.3    56.2                              
1973-03-08 00   15.6    55.4                              
1973-03-08 06   15.9    54.7                              
1973-03-08 12   16.2    54.3                              
1973-03-08 18   16.6    53.9                              
1973-03-09 00   16.9    53.6                              
1973-03-09 06   17.2    53.3                              
1973-03-09 12   20.4    52.7                              
1973-03-09 18   23.7    52.1                              
1973-03-10 00   21.8    51.8                              
1973-03-10 06   20.0    51.6                              
1973-03-10 12   20.8    51.4                              
1973-03-10 18   21.6    51.3                              
1973-03-11 00   22.5    51.4                              
1973-03-11 06   23.4    51.7                              
1973-03-11 12   24.2    52.3                              
1973-03-11 18   25.0    53.1                              
1973-03-12 00   25.8    54.1                              
1973-03-12 06   26.4    55.0                              
1973-03-12 12   26.6    55.2                              
1973-03-12 18   26.6    55.4                              
1973-03-13 00   26.5    55.7                              
1973-03-13 06   26.7    56.0                              
1973-03-13 12   27.7    56.6                              
1973-03-13 18   28.9    57.2                              
1973-03-14 00   30.0    57.7                              
1973-03-14 06   31.0    58.1                              
1973-03-14 12   31.7    58.4                              
1973-03-14 18   32.5    58.7                              
1973-03-15 00   33.2    58.9                              
1973-03-15 06   34.0    59.0                              
Winds are 1-min average.

Tropical cyclone tracks developed by Michael Bath using data from the Joint Typhoon Warning Centre Best Tracks and Google Maps.


[Australian Severe Weather index] [Copyright Notice] [Email Contacts] [Search This Site] [Privacy Policy]
Document: tropical_cyclone_lydie.htm Updated: 18 September 2016